sensor_id;sensor_type;location;lat;lon;timestamp;temperature;humidity
70051;SHT30;57391;51.306;22.680;2023-03-01T00:01:39;-1.28;69.47
70051;SHT30;57391;51.306;22.680;2023-03-01T00:04:07;-1.35;69.49
70051;SHT30;57391;51.306;22.680;2023-03-01T00:06:34;-1.39;69.59
70051;SHT30;57391;51.306;22.680;2023-03-01T00:09:01;-1.43;69.53
70051;SHT30;57391;51.306;22.680;2023-03-01T00:11:29;-1.45;69.56
70051;SHT30;57391;51.306;22.680;2023-03-01T00:14:00;-1.47;69.45
70051;SHT30;57391;51.306;22.680;2023-03-01T00:16:32;-1.47;69.63
70051;SHT30;57391;51.306;22.680;2023-03-01T00:19:07;-1.49;69.59
70051;SHT30;57391;51.306;22.680;2023-03-01T00:21:39;-1.50;69.57
70051;SHT30;57391;51.306;22.680;2023-03-01T00:24:06;-1.50;69.70
70051;SHT30;57391;51.306;22.680;2023-03-01T00:26:34;-1.51;69.93
70051;SHT30;57391;51.306;22.680;2023-03-01T00:29:02;-1.51;69.89
70051;SHT30;57391;51.306;22.680;2023-03-01T00:31:30;-1.50;70.47
70051;SHT30;57391;51.306;22.680;2023-03-01T00:34:00;-1.45;70.73
70051;SHT30;57391;51.306;22.680;2023-03-01T00:36:32;-1.41;70.99
70051;SHT30;57391;51.306;22.680;2023-03-01T00:39:03;-1.37;71.05
70051;SHT30;57391;51.306;22.680;2023-03-01T00:41:33;-1.34;71.15
70051;SHT30;57391;51.306;22.680;2023-03-01T00:44:01;-1.30;71.19
70051;SHT30;57391;51.306;22.680;2023-03-01T00:46:28;-1.27;71.10
70051;SHT30;57391;51.306;22.680;2023-03-01T00:48:56;-1.25;70.93
70051;SHT30;57391;51.306;22.680;2023-03-01T00:51:25;-1.23;70.81
70051;SHT30;57391;51.306;22.680;2023-03-01T00:53:57;-1.24;70.78
70051;SHT30;57391;51.306;22.680;2023-03-01T00:56:27;-1.27;70.72
70051;SHT30;57391;51.306;22.680;2023-03-01T00:58:55;-1.30;70.73
70051;SHT30;57391;51.306;22.680;2023-03-01T01:05:52;-1.54;69.83
70051;SHT30;57391;51.306;22.680;2023-03-01T01:08:20;-1.58;69.94
70051;SHT30;57391;51.306;22.680;2023-03-01T01:10:48;-1.62;70.08
70051;SHT30;57391;51.306;22.680;2023-03-01T01:13:15;-1.62;70.33
70051;SHT30;57391;51.306;22.680;2023-03-01T01:15:42;-1.61;70.43
70051;SHT30;57391;51.306;22.680;2023-03-01T01:18:09;-1.60;70.47
70051;SHT30;57391;51.306;22.680;2023-03-01T01:20:37;-1.56;70.57
70051;SHT30;57391;51.306;22.680;2023-03-01T01:23:05;-1.55;70.58
70051;SHT30;57391;51.306;22.680;2023-03-01T01:25:34;-1.55;70.69
70051;SHT30;57391;51.306;22.680;2023-03-01T01:28:02;-1.55;70.68
70051;SHT30;57391;51.306;22.680;2023-03-01T01:30:30;-1.54;70.69
70051;SHT30;57391;51.306;22.680;2023-03-01T01:32:57;-1.55;70.83
70051;SHT30;57391;51.306;22.680;2023-03-01T01:35:24;-1.54;71.01
70051;SHT30;57391;51.306;22.680;2023-03-01T01:37:51;-1.54;70.93
70051;SHT30;57391;51.306;22.680;2023-03-01T01:40:19;-1.56;71.08
70051;SHT30;57391;51.306;22.680;2023-03-01T01:42:46;-1.54;71.25
70051;SHT30;57391;51.306;22.680;2023-03-01T01:45:32;-1.53;71.19
70051;SHT30;57391;51.306;22.680;2023-03-01T01:48:03;-1.56;70.99
70051;SHT30;57391;51.306;22.680;2023-03-01T01:50:38;-1.59;71.15
70051;SHT30;57391;51.306;22.680;2023-03-01T01:53:14;-1.59;71.39
70051;SHT30;57391;51.306;22.680;2023-03-01T01:55:54;-1.54;71.91
70051;SHT30;57391;51.306;22.680;2023-03-01T01:58:27;-1.52;71.54
70051;SHT30;57391;51.306;22.680;2023-03-01T02:00:57;-1.57;71.26
70051;SHT30;57391;51.306;22.680;2023-03-01T02:03:28;-1.61;71.29
70051;SHT30;57391;51.306;22.680;2023-03-01T02:06:04;-1.64;71.33
70051;SHT30;57391;51.306;22.680;2023-03-01T02:08:42;-1.70;71.50
70051;SHT30;57391;51.306;22.680;2023-03-01T02:11:12;-1.73;71.74
70051;SHT30;57391;51.306;22.680;2023-03-01T02:13:43;-1.72;72.10
70051;SHT30;57391;51.306;22.680;2023-03-01T02:16:13;-1.71;71.94
70051;SHT30;57391;51.306;22.680;2023-03-01T02:18:41;-1.72;71.83
70051;SHT30;57391;51.306;22.680;2023-03-01T02:23:59;-1.77;71.52
70051;SHT30;57391;51.306;22.680;2023-03-01T02:27:19;-1.78;71.39
70051;SHT30;57391;51.306;22.680;2023-03-01T02:29:54;-1.81;71.46
70051;SHT30;57391;51.306;22.680;2023-03-01T02:32:21;-1.84;71.69
70051;SHT30;57391;51.306;22.680;2023-03-01T02:34:52;-1.87;71.91
70051;SHT30;57391;51.306;22.680;2023-03-01T02:37:21;-1.88;72.15
70051;SHT30;57391;51.306;22.680;2023-03-01T02:39:56;-1.90;72.23
70051;SHT30;57391;51.306;22.680;2023-03-01T02:42:33;-1.91;72.39
70051;SHT30;57391;51.306;22.680;2023-03-01T02:45:15;-1.93;72.53
70051;SHT30;57391;51.306;22.680;2023-03-01T02:47:43;-1.94;72.69
70051;SHT30;57391;51.306;22.680;2023-03-01T02:50:15;-1.92;72.71
70051;SHT30;57391;51.306;22.680;2023-03-01T02:55:35;-1.91;72.74
70051;SHT30;57391;51.306;22.680;2023-03-01T02:58:04;-1.89;72.74
70051;SHT30;57391;51.306;22.680;2023-03-01T03:00:34;-1.88;72.87
70051;SHT30;57391;51.306;22.680;2023-03-01T03:03:14;-1.88;72.94
70051;SHT30;57391;51.306;22.680;2023-03-01T03:05:43;-1.88;73.11
70051;SHT30;57391;51.306;22.680;2023-03-01T03:08:11;-1.87;73.20
70051;SHT30;57391;51.306;22.680;2023-03-01T03:10:39;-1.86;73.22
70051;SHT30;57391;51.306;22.680;2023-03-01T03:13:10;-1.86;73.21
70051;SHT30;57391;51.306;22.680;2023-03-01T03:15:41;-1.86;73.29
70051;SHT30;57391;51.306;22.680;2023-03-01T03:18:10;-1.86;73.35
70051;SHT30;57391;51.306;22.680;2023-03-01T03:20:43;-1.87;73.46
70051;SHT30;57391;51.306;22.680;2023-03-01T03:23:11;-1.86;73.46
70051;SHT30;57391;51.306;22.680;2023-03-01T03:25:39;-1.85;73.37
70051;SHT30;57391;51.306;22.680;2023-03-01T03:28:06;-1.84;73.40
70051;SHT30;57391;51.306;22.680;2023-03-01T03:30:38;-1.83;73.52
70051;SHT30;57391;51.306;22.680;2023-03-01T03:33:08;-1.82;73.53
70051;SHT30;57391;51.306;22.680;2023-03-01T03:35:41;-1.79;73.57
70051;SHT30;57391;51.306;22.680;2023-03-01T03:38:14;-1.78;73.56
70051;SHT30;57391;51.306;22.680;2023-03-01T03:40:44;-1.77;73.55
70051;SHT30;57391;51.306;22.680;2023-03-01T03:43:30;-1.74;73.58
70051;SHT30;57391;51.306;22.680;2023-03-01T03:46:01;-1.72;73.67
70051;SHT30;57391;51.306;22.680;2023-03-01T03:48:33;-1.69;73.75
70051;SHT30;57391;51.306;22.680;2023-03-01T03:51:02;-1.68;73.77
70051;SHT30;57391;51.306;22.680;2023-03-01T03:53:33;-1.67;73.79
70051;SHT30;57391;51.306;22.680;2023-03-01T03:56:00;-1.67;73.94
70051;SHT30;57391;51.306;22.680;2023-03-01T03:58:27;-1.68;74.01
70051;SHT30;57391;51.306;22.680;2023-03-01T04:00:55;-1.68;74.14
70051;SHT30;57391;51.306;22.680;2023-03-01T04:03:24;-1.65;74.20
70051;SHT30;57391;51.306;22.680;2023-03-01T04:05:54;-1.64;74.17
70051;SHT30;57391;51.306;22.680;2023-03-01T04:08:23;-1.62;74.04
70051;SHT30;57391;51.306;22.680;2023-03-01T04:10:52;-1.59;73.89
70051;SHT30;57391;51.306;22.680;2023-03-01T04:13:26;-1.56;73.51
70051;SHT30;57391;51.306;22.680;2023-03-01T04:15:53;-1.53;73.06
70051;SHT30;57391;51.306;22.680;2023-03-01T04:18:22;-1.50;72.82
70051;SHT30;57391;51.306;22.680;2023-03-01T04:20:52;-1.49;72.64
70051;SHT30;57391;51.306;22.680;2023-03-01T04:23:21;-1.50;72.56
70051;SHT30;57391;51.306;22.680;2023-03-01T04:25:51;-1.52;72.60
70051;SHT30;57391;51.306;22.680;2023-03-01T04:28:22;-1.54;72.60
70051;SHT30;57391;51.306;22.680;2023-03-01T04:31:05;-1.55;72.70
70051;SHT30;57391;51.306;22.680;2023-03-01T04:34:00;-1.56;72.77
70051;SHT30;57391;51.306;22.680;2023-03-01T04:36:27;-1.56;72.83
70051;SHT30;57391;51.306;22.680;2023-03-01T04:38:55;-1.59;72.83
70051;SHT30;57391;51.306;22.680;2023-03-01T04:41:23;-1.59;72.94
70051;SHT30;57391;51.306;22.680;2023-03-01T04:43:51;-1.60;73.08
70051;SHT30;57391;51.306;22.680;2023-03-01T04:46:19;-1.60;73.20
70051;SHT30;57391;51.306;22.680;2023-03-01T04:48:47;-1.61;73.37
70051;SHT30;57391;51.306;22.680;2023-03-01T04:51:16;-1.60;73.29
70051;SHT30;57391;51.306;22.680;2023-03-01T04:53:45;-1.59;73.35
70051;SHT30;57391;51.306;22.680;2023-03-01T04:56:12;-1.59;73.07
70051;SHT30;57391;51.306;22.680;2023-03-01T04:58:41;-1.60;72.93
70051;SHT30;57391;51.306;22.680;2023-03-01T05:01:13;-1.62;73.06
70051;SHT30;57391;51.306;22.680;2023-03-01T05:03:48;-1.61;73.46
70051;SHT30;57391;51.306;22.680;2023-03-01T05:06:18;-1.59;73.83
70051;SHT30;57391;51.306;22.680;2023-03-01T05:08:47;-1.58;73.90
70051;SHT30;57391;51.306;22.680;2023-03-01T05:11:15;-1.59;73.97
70051;SHT30;57391;51.306;22.680;2023-03-01T05:13:42;-1.60;74.15
70051;SHT30;57391;51.306;22.680;2023-03-01T05:16:10;-1.60;74.22
70051;SHT30;57391;51.306;22.680;2023-03-01T05:18:37;-1.61;74.31
70051;SHT30;57391;51.306;22.680;2023-03-01T05:21:07;-1.61;74.46
70051;SHT30;57391;51.306;22.680;2023-03-01T05:23:39;-1.60;74.69
70051;SHT30;57391;51.306;22.680;2023-03-01T05:26:07;-1.58;74.67
70051;SHT30;57391;51.306;22.680;2023-03-01T05:28:35;-1.55;74.69
70051;SHT30;57391;51.306;22.680;2023-03-01T05:31:04;-1.52;74.69
70051;SHT30;57391;51.306;22.680;2023-03-01T05:33:39;-1.51;74.62
70051;SHT30;57391;51.306;22.680;2023-03-01T05:36:07;-1.50;74.46
70051;SHT30;57391;51.306;22.680;2023-03-01T05:38:39;-1.47;74.39
70051;SHT30;57391;51.306;22.680;2023-03-01T05:41:12;-1.42;74.40
70051;SHT30;57391;51.306;22.680;2023-03-01T05:43:43;-1.36;74.39
70051;SHT30;57391;51.306;22.680;2023-03-01T05:46:11;-1.22;74.37
70051;SHT30;57391;51.306;22.680;2023-03-01T05:48:39;-1.05;74.17
70051;SHT30;57391;51.306;22.680;2023-03-01T05:51:07;-0.90;73.91
70051;SHT30;57391;51.306;22.680;2023-03-01T05:53:34;-0.77;73.75
70051;SHT30;57391;51.306;22.680;2023-03-01T05:56:04;-0.67;73.53
70051;SHT30;57391;51.306;22.680;2023-03-01T05:58:32;-0.57;73.34
70051;SHT30;57391;51.306;22.680;2023-03-01T06:00:59;-0.47;73.30
70051;SHT30;57391;51.306;22.680;2023-03-01T06:03:26;-0.34;73.20
70051;SHT30;57391;51.306;22.680;2023-03-01T06:05:56;-0.23;72.90
70051;SHT30;57391;51.306;22.680;2023-03-01T06:08:24;-0.18;72.68
70051;SHT30;57391;51.306;22.680;2023-03-01T06:10:53;-0.16;72.54
70051;SHT30;57391;51.306;22.680;2023-03-01T06:13:20;-0.11;72.40
70051;SHT30;57391;51.306;22.680;2023-03-01T06:15:49;-0.03;72.42
70051;SHT30;57391;51.306;22.680;2023-03-01T06:18:16;0.07;72.22
70051;SHT30;57391;51.306;22.680;2023-03-01T06:20:43;0.21;72.01
70051;SHT30;57391;51.306;22.680;2023-03-01T06:23:10;0.40;71.66
70051;SHT30;57391;51.306;22.680;2023-03-01T06:25:37;0.58;71.32
70051;SHT30;57391;51.306;22.680;2023-03-01T06:28:04;0.82;70.98
70051;SHT30;57391;51.306;22.680;2023-03-01T06:30:32;1.07;70.31
70051;SHT30;57391;51.306;22.680;2023-03-01T06:32:59;1.21;70.03
70051;SHT30;57391;51.306;22.680;2023-03-01T06:35:27;1.42;69.81
70051;SHT30;57391;51.306;22.680;2023-03-01T06:37:58;1.72;69.10
70051;SHT30;57391;51.306;22.680;2023-03-01T06:40:27;1.99;68.63
70051;SHT30;57391;51.306;22.680;2023-03-01T06:42:55;2.18;68.09
70051;SHT30;57391;51.306;22.680;2023-03-01T06:45:22;2.43;67.71
70051;SHT30;57391;51.306;22.680;2023-03-01T06:47:51;2.66;67.17
70051;SHT30;57391;51.306;22.680;2023-03-01T06:50:18;2.74;66.81
70051;SHT30;57391;51.306;22.680;2023-03-01T06:52:45;2.78;66.47
70051;SHT30;57391;51.306;22.680;2023-03-01T06:55:13;2.82;66.48
70051;SHT30;57391;51.306;22.680;2023-03-01T06:57:40;2.83;66.20
70051;SHT30;57391;51.306;22.680;2023-03-01T07:00:08;2.89;66.15
70051;SHT30;57391;51.306;22.680;2023-03-01T07:02:36;3.11;65.78
70051;SHT30;57391;51.306;22.680;2023-03-01T07:05:03;3.41;64.92
70051;SHT30;57391;51.306;22.680;2023-03-01T07:07:30;3.77;64.24
70051;SHT30;57391;51.306;22.680;2023-03-01T07:09:57;4.04;63.15
70051;SHT30;57391;51.306;22.680;2023-03-01T07:12:24;4.23;62.73
70051;SHT30;57391;51.306;22.680;2023-03-01T07:14:52;4.38;61.80
70051;SHT30;57391;51.306;22.680;2023-03-01T07:17:18;4.39;61.57
70051;SHT30;57391;51.306;22.680;2023-03-01T07:19:46;4.40;61.25
70051;SHT30;57391;51.306;22.680;2023-03-01T07:22:13;4.41;61.29
70051;SHT30;57391;51.306;22.680;2023-03-01T07:24:41;4.45;61.26
70051;SHT30;57391;51.306;22.680;2023-03-01T07:27:09;4.48;61.05
70051;SHT30;57391;51.306;22.680;2023-03-01T07:29:37;4.48;61.00
70051;SHT30;57391;51.306;22.680;2023-03-01T07:32:04;4.49;61.22
70051;SHT30;57391;51.306;22.680;2023-03-01T07:34:32;4.56;60.99
70051;SHT30;57391;51.306;22.680;2023-03-01T07:37:00;4.63;60.73
70051;SHT30;57391;51.306;22.680;2023-03-01T07:39:27;4.69;60.74
70051;SHT30;57391;51.306;22.680;2023-03-01T07:41:55;4.75;60.54
70051;SHT30;57391;51.306;22.680;2023-03-01T07:44:22;4.78;60.54
70051;SHT30;57391;51.306;22.680;2023-03-01T07:46:49;4.82;60.50
70051;SHT30;57391;51.306;22.680;2023-03-01T07:49:19;4.86;60.36
70051;SHT30;57391;51.306;22.680;2023-03-01T07:51:47;4.90;60.37
70051;SHT30;57391;51.306;22.680;2023-03-01T07:54:14;4.94;59.71
70051;SHT30;57391;51.306;22.680;2023-03-01T07:56:41;4.94;59.39
70051;SHT30;57391;51.306;22.680;2023-03-01T07:59:09;4.95;59.35
70051;SHT30;57391;51.306;22.680;2023-03-01T08:01:36;4.96;59.41
70051;SHT30;57391;51.306;22.680;2023-03-01T08:04:03;5.00;59.60
70051;SHT30;57391;51.306;22.680;2023-03-01T08:06:33;5.06;59.10
70051;SHT30;57391;51.306;22.680;2023-03-01T08:09:02;5.10;58.65
70051;SHT30;57391;51.306;22.680;2023-03-01T08:11:29;5.17;58.61
70051;SHT30;57391;51.306;22.680;2023-03-01T08:13:57;5.26;58.82
70051;SHT30;57391;51.306;22.680;2023-03-01T08:16:24;5.36;58.52
70051;SHT30;57391;51.306;22.680;2023-03-01T08:18:51;5.44;58.15
70051;SHT30;57391;51.306;22.680;2023-03-01T08:21:19;5.56;58.69
70051;SHT30;57391;51.306;22.680;2023-03-01T08:23:46;5.69;58.82
70051;SHT30;57391;51.306;22.680;2023-03-01T08:26:14;5.76;57.88
70051;SHT30;57391;51.306;22.680;2023-03-01T08:28:45;5.78;57.01
70051;SHT30;57391;51.306;22.680;2023-03-01T08:31:15;5.80;57.11
70051;SHT30;57391;51.306;22.680;2023-03-01T08:33:43;5.86;57.33
70051;SHT30;57391;51.306;22.680;2023-03-01T08:36:17;5.89;57.46
70051;SHT30;57391;51.306;22.680;2023-03-01T08:38:44;5.98;57.48
70051;SHT30;57391;51.306;22.680;2023-03-01T08:41:12;6.05;56.58
70051;SHT30;57391;51.306;22.680;2023-03-01T08:43:40;6.14;56.26
70051;SHT30;57391;51.306;22.680;2023-03-01T08:46:08;6.18;56.32
70051;SHT30;57391;51.306;22.680;2023-03-01T08:48:42;6.25;56.56
70051;SHT30;57391;51.306;22.680;2023-03-01T08:51:13;6.31;56.36
70051;SHT30;57391;51.306;22.680;2023-03-01T08:53:44;6.38;56.21
70051;SHT30;57391;51.306;22.680;2023-03-01T08:56:12;6.44;56.15
70051;SHT30;57391;51.306;22.680;2023-03-01T08:58:43;6.56;56.16
70051;SHT30;57391;51.306;22.680;2023-03-01T09:01:14;6.67;55.91
70051;SHT30;57391;51.306;22.680;2023-03-01T09:03:45;6.81;55.84
70051;SHT30;57391;51.306;22.680;2023-03-01T09:06:14;6.94;55.36
70051;SHT30;57391;51.306;22.680;2023-03-01T09:08:43;6.99;54.77
70051;SHT30;57391;51.306;22.680;2023-03-01T09:11:16;7.03;55.05
70051;SHT30;57391;51.306;22.680;2023-03-01T09:13:47;7.11;55.20
70051;SHT30;57391;51.306;22.680;2023-03-01T09:16:16;7.22;54.98
70051;SHT30;57391;51.306;22.680;2023-03-01T09:18:50;7.35;54.26
70051;SHT30;57391;51.306;22.680;2023-03-01T09:21:21;7.45;54.00
70051;SHT30;57391;51.306;22.680;2023-03-01T09:23:50;7.54;54.09
70051;SHT30;57391;51.306;22.680;2023-03-01T09:26:19;7.60;53.33
70051;SHT30;57391;51.306;22.680;2023-03-01T09:28:49;7.63;53.77
70051;SHT30;57391;51.306;22.680;2023-03-01T09:31:20;7.70;53.53
70051;SHT30;57391;51.306;22.680;2023-03-01T09:33:49;7.74;53.26
70051;SHT30;57391;51.306;22.680;2023-03-01T09:36:20;7.81;53.13
70051;SHT30;57391;51.306;22.680;2023-03-01T09:38:51;7.86;53.12
70051;SHT30;57391;51.306;22.680;2023-03-01T09:44:51;8.01;52.99
70051;SHT30;57391;51.306;22.680;2023-03-01T09:47:18;8.13;52.73
70051;SHT30;57391;51.306;22.680;2023-03-01T09:50:05;8.23;51.85
70051;SHT30;57391;51.306;22.680;2023-03-01T09:55:13;8.19;51.28
70051;SHT30;57391;51.306;22.680;2023-03-01T10:06:14;7.90;51.18
70051;SHT30;57391;51.306;22.680;2023-03-01T10:08:54;7.90;51.70
70051;SHT30;57391;51.306;22.680;2023-03-01T10:12:13;7.97;51.55
70051;SHT30;57391;51.306;22.680;2023-03-01T10:17:35;8.26;51.96
70051;SHT30;57391;51.306;22.680;2023-03-01T10:20:30;8.45;51.50
70051;SHT30;57391;51.306;22.680;2023-03-01T10:23:18;8.61;51.46
70051;SHT30;57391;51.306;22.680;2023-03-01T10:28:17;8.78;51.61
70051;SHT30;57391;51.306;22.680;2023-03-01T10:30:54;8.83;51.49
70051;SHT30;57391;51.306;22.680;2023-03-01T10:33:27;8.89;50.99
70051;SHT30;57391;51.306;22.680;2023-03-01T10:36:01;8.95;50.67
70051;SHT30;57391;51.306;22.680;2023-03-01T10:38:30;9.00;50.62
70051;SHT30;57391;51.306;22.680;2023-03-01T10:41:15;9.06;50.46
70051;SHT30;57391;51.306;22.680;2023-03-01T10:43:47;9.10;50.07
70051;SHT30;57391;51.306;22.680;2023-03-01T10:46:22;9.13;50.15
70051;SHT30;57391;51.306;22.680;2023-03-01T10:49:07;9.08;49.08
70051;SHT30;57391;51.306;22.680;2023-03-01T10:51:49;9.05;49.67
70051;SHT30;57391;51.306;22.680;2023-03-01T10:54:20;9.03;49.98
70051;SHT30;57391;51.306;22.680;2023-03-01T10:56:49;9.10;50.46
70051;SHT30;57391;51.306;22.680;2023-03-01T11:04:58;9.25;49.24
70051;SHT30;57391;51.306;22.680;2023-03-01T11:07:53;9.18;48.83
70051;SHT30;57391;51.306;22.680;2023-03-01T11:10:26;9.09;48.84
70051;SHT30;57391;51.306;22.680;2023-03-01T11:13:13;9.05;49.56
70051;SHT30;57391;51.306;22.680;2023-03-01T11:18:27;9.13;49.47
70051;SHT30;57391;51.306;22.680;2023-03-01T11:20:58;9.18;49.87
70051;SHT30;57391;51.306;22.680;2023-03-01T11:23:28;9.23;49.63
70051;SHT30;57391;51.306;22.680;2023-03-01T11:25:59;9.24;49.39
70051;SHT30;57391;51.306;22.680;2023-03-01T11:28:34;9.18;49.09
70051;SHT30;57391;51.306;22.680;2023-03-01T11:31:11;9.17;49.68
70051;SHT30;57391;51.306;22.680;2023-03-01T11:33:41;9.23;49.46
70051;SHT30;57391;51.306;22.680;2023-03-01T11:36:23;9.29;48.91
70051;SHT30;57391;51.306;22.680;2023-03-01T11:45:22;9.55;49.93
70051;SHT30;57391;51.306;22.680;2023-03-01T11:48:04;9.55;49.34
70051;SHT30;57391;51.306;22.680;2023-03-01T11:50:50;9.50;48.82
70051;SHT30;57391;51.306;22.680;2023-03-01T11:59:04;9.54;49.24
70051;SHT30;57391;51.306;22.680;2023-03-01T12:30:33;9.20;47.86
70051;SHT30;57391;51.306;22.680;2023-03-01T12:33:32;9.13;48.15
70051;SHT30;57391;51.306;22.680;2023-03-01T12:47:50;8.88;49.79
70051;SHT30;57391;51.306;22.680;2023-03-01T12:50:46;8.93;50.50
70051;SHT30;57391;51.306;22.680;2023-03-01T12:53:26;8.96;49.72
70051;SHT30;57391;51.306;22.680;2023-03-01T12:56:00;8.95;50.00
70051;SHT30;57391;51.306;22.680;2023-03-01T12:58:35;8.95;50.52
70051;SHT30;57391;51.306;22.680;2023-03-01T13:01:15;9.03;51.45
70051;SHT30;57391;51.306;22.680;2023-03-01T13:10:06;9.49;51.92
70051;SHT30;57391;51.306;22.680;2023-03-01T13:13:21;9.67;51.30
70051;SHT30;57391;51.306;22.680;2023-03-01T13:15:54;9.70;51.20
70051;SHT30;57391;51.306;22.680;2023-03-01T13:20:52;9.64;50.58
70051;SHT30;57391;51.306;22.680;2023-03-01T13:23:26;9.57;50.61
70051;SHT30;57391;51.306;22.680;2023-03-01T13:26:09;9.51;50.90
70051;SHT30;57391;51.306;22.680;2023-03-01T13:33:47;9.37;50.84
70051;SHT30;57391;51.306;22.680;2023-03-01T13:41:55;9.16;51.70
70051;SHT30;57391;51.306;22.680;2023-03-01T13:47:17;9.43;51.67
70051;SHT30;57391;51.306;22.680;2023-03-01T13:52:42;9.71;50.56
70051;SHT30;57391;51.306;22.680;2023-03-01T13:57:48;9.70;49.84
70051;SHT30;57391;51.306;22.680;2023-03-01T14:06:08;9.45;50.60
70051;SHT30;57391;51.306;22.680;2023-03-01T14:08:45;9.45;51.14
70051;SHT30;57391;51.306;22.680;2023-03-01T14:17:09;9.30;50.81
70051;SHT30;57391;51.306;22.680;2023-03-01T14:20:19;9.26;50.43
70051;SHT30;57391;51.306;22.680;2023-03-01T14:22:49;9.22;50.39
70051;SHT30;57391;51.306;22.680;2023-03-01T14:25:33;9.17;50.60
70051;SHT30;57391;51.306;22.680;2023-03-01T14:30:51;9.06;50.90
70051;SHT30;57391;51.306;22.680;2023-03-01T14:38:35;8.86;51.23
70051;SHT30;57391;51.306;22.680;2023-03-01T14:43:45;8.70;51.37
70051;SHT30;57391;51.306;22.680;2023-03-01T14:47:00;8.63;51.51
70051;SHT30;57391;51.306;22.680;2023-03-01T14:49:12;8.58;51.59
70051;SHT30;57391;51.306;22.680;2023-03-01T14:51:41;8.53;51.81
70051;SHT30;57391;51.306;22.680;2023-03-01T14:57:22;8.38;52.98
70051;SHT30;57391;51.306;22.680;2023-03-01T14:59:52;8.27;53.20
70051;SHT30;57391;51.306;22.680;2023-03-01T15:02:25;8.14;53.25
70051;SHT30;57391;51.306;22.680;2023-03-01T15:04:56;8.03;53.36
70051;SHT30;57391;51.306;22.680;2023-03-01T15:07:29;7.93;53.71
70051;SHT30;57391;51.306;22.680;2023-03-01T15:10:13;7.83;54.17
70051;SHT30;57391;51.306;22.680;2023-03-01T15:12:48;7.72;54.32
70051;SHT30;57391;51.306;22.680;2023-03-01T15:17:57;7.54;54.65
70051;SHT30;57391;51.306;22.680;2023-03-01T15:20:47;7.44;55.26
70051;SHT30;57391;51.306;22.680;2023-03-01T15:23:18;7.35;55.68
70051;SHT30;57391;51.306;22.680;2023-03-01T15:25:56;7.26;55.80
70051;SHT30;57391;51.306;22.680;2023-03-01T15:31:02;7.07;56.10
70051;SHT30;57391;51.306;22.680;2023-03-01T15:33:48;6.97;56.19
70051;SHT30;57391;51.306;22.680;2023-03-01T15:38:57;6.80;56.63
70051;SHT30;57391;51.306;22.680;2023-03-01T15:41:30;6.74;56.82
70051;SHT30;57391;51.306;22.680;2023-03-01T15:44:25;6.68;56.85
70051;SHT30;57391;51.306;22.680;2023-03-01T15:46:56;6.64;57.03
70051;SHT30;57391;51.306;22.680;2023-03-01T15:49:40;6.61;57.22
70051;SHT30;57391;51.306;22.680;2023-03-01T15:52:13;6.56;57.32
70051;SHT30;57391;51.306;22.680;2023-03-01T15:54:59;6.50;57.19
70051;SHT30;57391;51.306;22.680;2023-03-01T15:57:32;6.44;57.29
70051;SHT30;57391;51.306;22.680;2023-03-01T15:59:59;6.37;57.52
70051;SHT30;57391;51.306;22.680;2023-03-01T16:02:27;6.33;57.68
70051;SHT30;57391;51.306;22.680;2023-03-01T16:04:55;6.32;57.85
70051;SHT30;57391;51.306;22.680;2023-03-01T16:07:22;6.29;58.12
70051;SHT30;57391;51.306;22.680;2023-03-01T16:09:50;6.26;58.28
70051;SHT30;57391;51.306;22.680;2023-03-01T16:12:17;6.25;58.60
70051;SHT30;57391;51.306;22.680;2023-03-01T16:14:47;6.22;58.84
70051;SHT30;57391;51.306;22.680;2023-03-01T16:17:15;6.18;59.12
70051;SHT30;57391;51.306;22.680;2023-03-01T16:19:44;6.11;59.00
70051;SHT30;57391;51.306;22.680;2023-03-01T16:22:11;6.06;58.99
70051;SHT30;57391;51.306;22.680;2023-03-01T16:24:38;6.02;59.09
70051;SHT30;57391;51.306;22.680;2023-03-01T16:27:06;5.98;59.31
70051;SHT30;57391;51.306;22.680;2023-03-01T16:29:34;5.93;59.34
70051;SHT30;57391;51.306;22.680;2023-03-01T16:32:01;5.86;59.14
70051;SHT30;57391;51.306;22.680;2023-03-01T16:34:29;5.80;59.01
70051;SHT30;57391;51.306;22.680;2023-03-01T16:36:56;5.73;59.00
70051;SHT30;57391;51.306;22.680;2023-03-01T16:39:24;5.67;59.07
70051;SHT30;57391;51.306;22.680;2023-03-01T16:41:51;5.61;59.14
70051;SHT30;57391;51.306;22.680;2023-03-01T16:44:18;5.56;59.30
70051;SHT30;57391;51.306;22.680;2023-03-01T16:46:45;5.49;59.45
70051;SHT30;57391;51.306;22.680;2023-03-01T16:49:12;5.44;59.51
70051;SHT30;57391;51.306;22.680;2023-03-01T16:51:40;5.36;59.60
70051;SHT30;57391;51.306;22.680;2023-03-01T16:54:08;5.33;60.06
70051;SHT30;57391;51.306;22.680;2023-03-01T16:56:37;5.29;60.27
70051;SHT30;57391;51.306;22.680;2023-03-01T16:59:06;5.25;60.42
70051;SHT30;57391;51.306;22.680;2023-03-01T17:01:33;5.19;60.36
70051;SHT30;57391;51.306;22.680;2023-03-01T17:04:05;5.09;60.10
70051;SHT30;57391;51.306;22.680;2023-03-01T17:06:33;4.99;60.39
70051;SHT30;57391;51.306;22.680;2023-03-01T17:09:00;4.89;60.56
70051;SHT30;57391;51.306;22.680;2023-03-01T17:11:28;4.80;60.82
70051;SHT30;57391;51.306;22.680;2023-03-01T17:13:55;4.72;60.98
70051;SHT30;57391;51.306;22.680;2023-03-01T17:16:22;4.65;61.15
70051;SHT30;57391;51.306;22.680;2023-03-01T17:18:49;4.56;61.25
70051;SHT30;57391;51.306;22.680;2023-03-01T17:21:16;4.52;61.45
70051;SHT30;57391;51.306;22.680;2023-03-01T17:23:44;4.45;61.59
70051;SHT30;57391;51.306;22.680;2023-03-01T17:26:12;4.41;61.84
70051;SHT30;57391;51.306;22.680;2023-03-01T17:28:40;4.36;62.00
70051;SHT30;57391;51.306;22.680;2023-03-01T17:31:09;4.29;61.92
70051;SHT30;57391;51.306;22.680;2023-03-01T17:33:37;4.19;62.36
70051;SHT30;57391;51.306;22.680;2023-03-01T17:36:04;4.13;63.13
70051;SHT30;57391;51.306;22.680;2023-03-01T17:38:32;4.07;63.15
70051;SHT30;57391;51.306;22.680;2023-03-01T17:40:59;4.02;63.51
70051;SHT30;57391;51.306;22.680;2023-03-01T17:43:27;3.96;63.58
70051;SHT30;57391;51.306;22.680;2023-03-01T17:45:56;3.92;63.80
70051;SHT30;57391;51.306;22.680;2023-03-01T17:48:23;3.90;63.90
70051;SHT30;57391;51.306;22.680;2023-03-01T17:50:51;3.87;63.95
70051;SHT30;57391;51.306;22.680;2023-03-01T17:53:19;3.85;64.07
70051;SHT30;57391;51.306;22.680;2023-03-01T17:55:47;3.84;64.23
70051;SHT30;57391;51.306;22.680;2023-03-01T17:58:19;3.79;64.24
70051;SHT30;57391;51.306;22.680;2023-03-01T18:00:48;3.74;64.11
70051;SHT30;57391;51.306;22.680;2023-03-01T18:03:16;3.68;64.26
70051;SHT30;57391;51.306;22.680;2023-03-01T18:05:43;3.70;64.81
70051;SHT30;57391;51.306;22.680;2023-03-01T18:08:11;3.71;65.00
70051;SHT30;57391;51.306;22.680;2023-03-01T18:10:38;3.71;65.07
70051;SHT30;57391;51.306;22.680;2023-03-01T18:13:06;3.68;64.91
70051;SHT30;57391;51.306;22.680;2023-03-01T18:15:33;3.62;64.84
70051;SHT30;57391;51.306;22.680;2023-03-01T18:18:01;3.58;65.07
70051;SHT30;57391;51.306;22.680;2023-03-01T18:20:29;3.55;65.15
70051;SHT30;57391;51.306;22.680;2023-03-01T18:22:58;3.52;65.09